createdAt,value
2018-08-30T00:01:38.890Z,100.00
2018-08-30T00:04:08.334Z,100.00
2018-08-30T00:06:37.796Z,100.00
2018-08-30T00:09:07.738Z,100.00
2018-08-30T00:11:37.197Z,100.00
2018-08-30T00:14:06.641Z,100.00
2018-08-30T00:16:36.084Z,100.00
2018-08-30T00:19:05.533Z,100.00
2018-08-30T00:21:34.966Z,100.00
2018-08-30T00:24:04.535Z,100.00
2018-08-30T00:26:34.124Z,100.00
2018-08-30T00:29:03.622Z,100.00
2018-08-30T00:31:33.038Z,100.00
2018-08-30T00:34:02.517Z,100.00
2018-08-30T00:36:31.916Z,100.00
2018-08-30T00:39:01.369Z,100.00
2018-08-30T00:41:30.830Z,100.00
2018-08-30T00:44:00.216Z,100.00
2018-08-30T00:46:29.699Z,98.41
2018-08-30T00:48:59.152Z,98.71
2018-08-30T00:51:28.576Z,99.85
2018-08-30T00:53:57.982Z,99.05
2018-08-30T00:56:28.488Z,98.86
2018-08-30T00:58:57.989Z,98.75
2018-08-30T01:01:27.415Z,99.50
2018-08-30T01:03:56.891Z,100.00
2018-08-30T01:06:26.597Z,99.79
2018-08-30T01:08:56.032Z,97.11
2018-08-30T01:11:25.446Z,98.27
2018-08-30T01:13:54.847Z,98.44
2018-08-30T01:16:24.280Z,98.67
2018-08-30T01:18:53.756Z,99.49
2018-08-30T01:21:23.251Z,99.70
2018-08-30T01:23:53.208Z,99.53
2018-08-30T01:26:22.676Z,98.16
2018-08-30T01:28:52.095Z,98.56
2018-08-30T01:31:21.559Z,100.00
2018-08-30T01:33:51.029Z,100.00
2018-08-30T01:36:20.408Z,100.00
2018-08-30T01:38:49.798Z,100.00
2018-08-30T01:41:19.312Z,100.00
2018-08-30T01:43:48.731Z,100.00
2018-08-30T01:46:18.274Z,100.00
2018-08-30T01:48:47.637Z,100.00
2018-08-30T01:51:17.058Z,100.00
2018-08-30T01:53:46.500Z,100.00
2018-08-30T01:56:15.905Z,99.39
2018-08-30T01:58:45.361Z,97.77
2018-08-30T02:01:14.727Z,97.59
2018-08-30T02:03:44.135Z,98.39
2018-08-30T02:06:13.605Z,98.36
2018-08-30T02:08:43.037Z,96.84
2018-08-30T02:11:12.468Z,97.45
2018-08-30T02:13:41.844Z,98.43
2018-08-30T02:16:11.242Z,98.96
2018-08-30T02:18:40.663Z,98.68
2018-08-30T02:21:10.056Z,98.93
2018-08-30T02:23:39.547Z,99.00
2018-08-30T02:26:08.952Z,99.32
2018-08-30T02:28:38.405Z,99.89
2018-08-30T02:31:07.874Z,99.81
2018-08-30T02:33:37.347Z,99.28
2018-08-30T02:36:07.021Z,99.71
2018-08-30T02:38:36.455Z,100.00
2018-08-30T02:41:06.169Z,99.42
2018-08-30T02:43:35.643Z,100.00
2018-08-30T02:46:05.112Z,100.00
2018-08-30T02:48:34.598Z,99.11
2018-08-30T02:51:04.036Z,99.18
2018-08-30T02:53:33.544Z,99.31
2018-08-30T02:56:02.978Z,99.85
2018-08-30T02:58:32.369Z,99.72
2018-08-30T03:01:01.856Z,100.00
2018-08-30T03:03:31.331Z,100.00
2018-08-30T03:06:00.814Z,100.00
2018-08-30T03:08:30.277Z,100.00
2018-08-30T03:10:59.707Z,100.00
2018-08-30T03:13:29.257Z,100.00
2018-08-30T03:15:58.679Z,100.00
2018-08-30T03:18:28.215Z,100.00
2018-08-30T03:20:57.691Z,99.66
2018-08-30T03:23:27.132Z,100.00
2018-08-30T03:25:56.556Z,100.00
2018-08-30T03:28:25.975Z,100.00
2018-08-30T03:30:55.444Z,100.00
2018-08-30T03:33:24.767Z,100.00
2018-08-30T03:35:54.149Z,100.00
2018-08-30T03:38:23.621Z,100.00
2018-08-30T03:40:53.029Z,100.00
2018-08-30T03:43:22.466Z,100.00
2018-08-30T03:45:51.878Z,100.00
2018-08-30T03:48:21.303Z,100.00
2018-08-30T03:50:50.731Z,100.00
2018-08-30T03:53:20.146Z,100.00
2018-08-30T03:55:49.491Z,100.00
2018-08-30T03:58:18.859Z,100.00
2018-08-30T04:00:48.342Z,100.00
2018-08-30T04:03:17.743Z,100.00
2018-08-30T04:05:47.184Z,100.00
2018-08-30T04:08:16.583Z,100.00
2018-08-30T04:10:46.163Z,100.00
2018-08-30T04:13:15.597Z,100.00
2018-08-30T04:15:44.988Z,100.00
2018-08-30T04:18:14.445Z,100.00
2018-08-30T04:20:43.848Z,100.00
2018-08-30T04:23:13.265Z,100.00
2018-08-30T04:25:42.726Z,100.00
2018-08-30T04:28:12.128Z,100.00
2018-08-30T04:30:41.588Z,100.00
2018-08-30T04:33:11.248Z,100.00
2018-08-30T04:35:40.681Z,100.00
2018-08-30T04:38:10.116Z,99.76
2018-08-30T04:40:39.562Z,99.28
2018-08-30T04:43:09.068Z,99.04
2018-08-30T04:45:38.472Z,99.77
2018-08-30T04:48:07.876Z,99.49
2018-08-30T04:50:37.388Z,99.90
2018-08-30T04:53:06.791Z,99.63
2018-08-30T04:55:36.176Z,98.25
2018-08-30T04:58:05.854Z,98.42
2018-08-30T05:00:35.229Z,98.72
2018-08-30T05:03:04.669Z,98.48
2018-08-30T05:05:34.087Z,99.28
2018-08-30T05:08:03.514Z,99.75
2018-08-30T05:10:32.959Z,99.17
2018-08-30T05:13:02.369Z,99.34
2018-08-30T05:15:31.801Z,98.97
2018-08-30T05:18:01.294Z,99.41
2018-08-30T05:20:30.713Z,99.46
2018-08-30T05:23:00.200Z,98.96
2018-08-30T05:25:29.664Z,99.39
2018-08-30T05:27:59.084Z,98.61
2018-08-30T05:30:28.515Z,98.48
2018-08-30T05:32:58.032Z,99.16
2018-08-30T05:35:27.467Z,98.86
2018-08-30T05:37:56.920Z,99.21
2018-08-30T05:40:26.301Z,99.42
2018-08-30T05:42:55.711Z,99.21
2018-08-30T05:45:25.093Z,99.49
2018-08-30T05:47:54.486Z,99.70
2018-08-30T05:50:23.947Z,100.00
2018-08-30T05:52:53.404Z,100.00
2018-08-30T05:55:22.885Z,100.00
2018-08-30T05:57:52.341Z,98.89
2018-08-30T06:00:21.789Z,99.47
2018-08-30T06:02:51.190Z,99.60
2018-08-30T06:05:20.651Z,99.66
2018-08-30T06:07:50.060Z,100.00
2018-08-30T06:10:19.533Z,100.00
2018-08-30T06:12:48.985Z,100.00
2018-08-30T06:15:18.418Z,99.80
2018-08-30T06:17:47.965Z,100.00
2018-08-30T06:20:17.412Z,100.00
2018-08-30T06:22:46.901Z,100.00
2018-08-30T06:25:16.393Z,100.00
2018-08-30T06:27:45.833Z,100.00
2018-08-30T06:30:15.281Z,100.00
2018-08-30T06:32:44.772Z,100.00
2018-08-30T06:35:14.641Z,100.00
2018-08-30T06:37:44.085Z,100.00
2018-08-30T06:40:13.509Z,100.00
2018-08-30T06:42:42.940Z,100.00
2018-08-30T06:45:12.353Z,100.00
2018-08-30T06:47:41.851Z,99.45
2018-08-30T06:50:11.271Z,99.98
2018-08-30T06:52:40.635Z,99.92
2018-08-30T06:55:10.070Z,98.93
2018-08-30T06:57:39.494Z,98.64
2018-08-30T07:00:09.011Z,97.20
2018-08-30T07:02:38.461Z,95.89
2018-08-30T07:05:08.003Z,95.59
2018-08-30T07:07:37.434Z,96.98
2018-08-30T07:10:07.539Z,94.86
2018-08-30T07:12:36.977Z,92.57
2018-08-30T07:15:06.789Z,93.02
2018-08-30T07:17:36.157Z,93.35
2018-08-30T07:20:05.690Z,91.51
2018-08-30T07:22:35.202Z,91.32
2018-08-30T07:25:04.673Z,90.29
2018-08-30T07:27:34.095Z,91.68
2018-08-30T07:30:03.552Z,93.25
2018-08-30T07:32:32.958Z,92.32
2018-08-30T07:35:02.471Z,92.80
2018-08-30T07:37:31.766Z,91.13
2018-08-30T07:40:01.192Z,92.57
2018-08-30T07:42:30.825Z,91.95
2018-08-30T07:45:00.228Z,90.59
2018-08-30T07:47:29.704Z,90.65
2018-08-30T07:49:59.164Z,92.84
2018-08-30T07:52:28.626Z,92.74
2018-08-30T07:54:58.000Z,93.63
2018-08-30T07:57:27.432Z,93.37
2018-08-30T07:59:56.931Z,93.63
2018-08-30T08:02:26.343Z,91.13
2018-08-30T08:04:55.772Z,90.54
2018-08-30T08:07:25.240Z,90.80
2018-08-30T08:09:54.717Z,92.16
2018-08-30T08:12:24.157Z,92.59
2018-08-30T08:14:53.632Z,92.28
2018-08-30T08:17:23.121Z,93.11
2018-08-30T08:19:52.588Z,93.28
2018-08-30T08:22:21.987Z,93.50
2018-08-30T08:24:51.500Z,92.71
2018-08-30T08:27:20.873Z,93.15
2018-08-30T08:29:50.269Z,94.27
2018-08-30T08:32:19.686Z,93.44
2018-08-30T08:34:49.112Z,93.66
2018-08-30T08:37:18.537Z,93.48
2018-08-30T08:39:48.004Z,94.34
2018-08-30T08:42:17.453Z,94.71
2018-08-30T08:44:46.864Z,95.65
2018-08-30T08:47:16.537Z,96.47
2018-08-30T08:49:45.977Z,96.27
2018-08-30T08:52:15.447Z,96.43
2018-08-30T08:54:44.886Z,96.17
2018-08-30T08:57:14.302Z,96.74
2018-08-30T08:59:43.757Z,96.68
2018-08-30T09:02:13.194Z,96.99
2018-08-30T09:04:42.620Z,96.51
2018-08-30T09:07:12.205Z,94.84
2018-08-30T09:09:41.485Z,93.99
2018-08-30T09:12:10.886Z,94.49
2018-08-30T09:14:40.362Z,95.40
2018-08-30T09:17:09.812Z,96.66
2018-08-30T09:19:39.368Z,96.79
2018-08-30T09:22:08.789Z,95.84
2018-08-30T09:24:38.239Z,94.47
2018-08-30T09:27:07.691Z,95.15
2018-08-30T09:29:37.124Z,95.05
2018-08-30T09:32:06.879Z,95.37
2018-08-30T09:34:36.384Z,95.12
2018-08-30T09:37:05.929Z,94.79
2018-08-30T09:39:35.383Z,95.55
2018-08-30T09:42:04.873Z,92.62
2018-08-30T09:44:34.292Z,90.98
2018-08-30T09:47:03.753Z,91.52
2018-08-30T09:49:33.198Z,91.84
2018-08-30T09:52:02.703Z,88.08
2018-08-30T09:54:32.152Z,88.26
2018-08-30T09:57:01.763Z,86.52
2018-08-30T09:59:31.111Z,86.59
2018-08-30T10:02:05.711Z,88.16
2018-08-30T10:04:35.118Z,87.26
2018-08-30T10:07:04.582Z,88.12
2018-08-30T10:09:34.049Z,85.87
2018-08-30T10:12:03.582Z,85.87
2018-08-30T10:14:32.978Z,85.43
2018-08-30T10:17:02.460Z,86.65
2018-08-30T10:19:31.884Z,86.62
2018-08-30T10:22:01.328Z,86.30
2018-08-30T10:24:30.753Z,86.19
2018-08-30T10:27:00.272Z,85.45
2018-08-30T10:29:29.701Z,86.89
2018-08-30T10:31:59.195Z,88.08
2018-08-30T10:34:28.619Z,84.89
2018-08-30T10:36:58.079Z,84.08
2018-08-30T10:39:27.455Z,83.28
2018-08-30T10:41:56.873Z,83.92
2018-08-30T10:44:26.278Z,81.51
2018-08-30T10:46:55.658Z,81.24
2018-08-30T10:49:25.221Z,79.19
2018-08-30T10:51:54.671Z,79.50
2018-08-30T10:54:24.070Z,82.69
2018-08-30T10:56:53.466Z,82.03
2018-08-30T10:59:22.890Z,81.95
2018-08-30T11:01:52.401Z,82.51
2018-08-30T11:04:21.957Z,80.87
2018-08-30T11:06:51.482Z,79.30
2018-08-30T11:09:20.974Z,82.36
2018-08-30T11:11:50.389Z,82.00
2018-08-30T11:14:19.929Z,82.46
2018-08-30T11:16:49.398Z,82.85
2018-08-30T11:19:18.882Z,82.58
2018-08-30T11:21:48.361Z,81.06
2018-08-30T11:24:17.794Z,78.77
2018-08-30T11:26:47.206Z,79.52
2018-08-30T11:29:16.623Z,78.98
2018-08-30T11:31:46.139Z,80.04
2018-08-30T11:34:15.555Z,77.84
2018-08-30T11:36:45.004Z,77.45
2018-08-30T11:39:14.430Z,79.86
2018-08-30T11:41:44.040Z,82.31
2018-08-30T11:44:13.485Z,75.76
2018-08-30T11:46:42.940Z,74.25
2018-08-30T11:49:12.369Z,73.42
2018-08-30T11:51:41.876Z,76.65
2018-08-30T11:54:11.299Z,76.73
2018-08-30T11:56:40.698Z,80.04
2018-08-30T11:59:10.195Z,79.75
2018-08-30T12:01:39.749Z,74.83
2018-08-30T12:04:10.377Z,76.71
2018-08-30T12:06:39.898Z,77.32
2018-08-30T12:09:10.406Z,78.76
2018-08-30T12:11:41.269Z,82.30
2018-08-30T12:14:10.821Z,78.64
2018-08-30T12:16:40.220Z,78.08
2018-08-30T12:19:09.771Z,78.56
2018-08-30T12:21:39.196Z,76.81
2018-08-30T12:24:08.632Z,78.95
2018-08-30T12:26:38.080Z,80.69
2018-08-30T12:29:07.614Z,81.84
2018-08-30T12:31:37.113Z,83.44
2018-08-30T12:34:06.817Z,82.42
2018-08-30T12:36:36.152Z,82.30
2018-08-30T12:39:07.984Z,79.00
2018-08-30T12:41:37.472Z,80.11
2018-08-30T12:44:07.156Z,81.45
2018-08-30T12:46:36.724Z,81.90
2018-08-30T12:49:06.392Z,79.43
2018-08-30T12:51:36.070Z,81.56
2018-08-30T12:54:05.624Z,82.37
2018-08-30T12:56:35.138Z,83.53
2018-08-30T12:59:09.833Z,83.70
2018-08-30T13:01:39.268Z,82.83
2018-08-30T13:04:08.841Z,82.84
2018-08-30T13:06:42.371Z,83.60
2018-08-30T13:09:12.079Z,82.11
2018-08-30T13:11:41.198Z,80.03
2018-08-30T13:14:11.135Z,78.45
2018-08-30T13:16:40.613Z,80.28
2018-08-30T13:19:10.245Z,81.46
2018-08-30T13:21:39.673Z,81.93
2018-08-30T13:24:09.094Z,82.22
2018-08-30T13:26:38.607Z,83.87
2018-08-30T13:29:08.640Z,82.62
2018-08-30T13:31:38.174Z,80.46
2018-08-30T13:34:07.609Z,80.95
2018-08-30T13:36:36.905Z,82.05
2018-08-30T13:39:09.901Z,80.87
2018-08-30T13:41:39.558Z,82.54
2018-08-30T13:44:10.493Z,78.43
2018-08-30T13:46:41.083Z,74.99
2018-08-30T13:49:11.455Z,77.03
2018-08-30T13:51:41.062Z,79.38
2018-08-30T13:54:10.303Z,79.66
2018-08-30T13:56:40.040Z,80.11
2018-08-30T13:59:09.442Z,75.78
2018-08-30T14:01:38.913Z,75.91
2018-08-30T14:04:08.276Z,78.85
2018-08-30T14:06:37.560Z,75.67
2018-08-30T14:09:07.575Z,75.32
2018-08-30T14:11:37.069Z,75.61
2018-08-30T14:14:06.541Z,75.80
2018-08-30T14:16:35.679Z,75.67
2018-08-30T14:19:05.733Z,73.72
2018-08-30T14:21:34.991Z,75.50
2018-08-30T14:24:04.401Z,74.34
2018-08-30T14:26:33.942Z,75.13
2018-08-30T14:29:03.223Z,77.76
2018-08-30T14:31:32.628Z,75.20
2018-08-30T14:34:02.096Z,75.30
2018-08-30T14:36:31.540Z,75.86
2018-08-30T14:39:01.127Z,76.47
2018-08-30T14:41:30.498Z,78.11
2018-08-30T14:43:59.882Z,78.14
2018-08-30T14:46:29.308Z,76.28
2018-08-30T14:48:58.720Z,75.48
2018-08-30T14:51:28.367Z,75.00
2018-08-30T14:53:57.871Z,69.42
2018-08-30T14:56:27.332Z,71.40
2018-08-30T14:58:58.791Z,73.12
2018-08-30T15:01:28.681Z,73.69
2018-08-30T15:03:58.174Z,71.73
2018-08-30T15:06:27.589Z,73.06
2018-08-30T15:08:57.045Z,71.33
2018-08-30T15:11:26.575Z,72.26
2018-08-30T15:13:55.957Z,70.21
2018-08-30T15:16:26.453Z,67.56
2018-08-30T15:18:55.888Z,64.19
2018-08-30T15:21:26.351Z,63.24
2018-08-30T15:23:55.805Z,62.93
2018-08-30T15:26:25.358Z,63.23
2018-08-30T15:28:55.345Z,64.03
2018-08-30T15:31:24.784Z,62.99
2018-08-30T15:33:54.278Z,63.25
2018-08-30T15:36:23.629Z,65.06
2018-08-30T15:38:53.084Z,65.68
2018-08-30T15:41:22.548Z,66.75
2018-08-30T15:43:51.988Z,68.96
2018-08-30T15:46:21.448Z,68.21
2018-08-30T15:48:51.508Z,70.26
2018-08-30T15:51:20.812Z,70.71
2018-08-30T15:53:50.308Z,68.63
2018-08-30T15:56:19.795Z,64.82
2018-08-30T15:58:49.374Z,68.44
2018-08-30T16:01:18.827Z,68.93
2018-08-30T16:03:48.359Z,69.53
2018-08-30T16:06:17.841Z,66.76
2018-08-30T16:08:47.290Z,68.12
2018-08-30T16:11:16.877Z,67.14
2018-08-30T16:13:47.640Z,63.67
2018-08-30T16:16:17.669Z,65.75
2018-08-30T16:18:47.268Z,68.15
2018-08-30T16:21:16.856Z,69.36
2018-08-30T16:23:46.443Z,67.88
2018-08-30T16:26:15.881Z,69.98
2018-08-30T16:28:45.336Z,67.15
2018-08-30T16:31:14.897Z,66.73
2018-08-30T16:33:44.290Z,67.96
2018-08-30T16:36:13.740Z,69.53
2018-08-30T16:38:43.227Z,69.17
2018-08-30T16:41:12.847Z,68.95
2018-08-30T16:43:42.249Z,69.02
2018-08-30T16:46:11.657Z,69.16
2018-08-30T16:48:41.281Z,64.36
2018-08-30T16:51:10.875Z,63.83
2018-08-30T16:53:40.234Z,63.45
2018-08-30T16:56:09.623Z,63.20
2018-08-30T16:58:39.087Z,63.94
2018-08-30T17:01:08.560Z,64.79
2018-08-30T17:03:38.608Z,64.45
2018-08-30T17:06:08.543Z,64.61
2018-08-30T17:08:38.217Z,66.43
2018-08-30T17:11:07.576Z,67.76
2018-08-30T17:13:36.984Z,69.89
2018-08-30T17:16:06.449Z,70.51
2018-08-30T17:18:36.037Z,70.64
2018-08-30T17:21:05.546Z,70.35
2018-08-30T17:23:35.176Z,69.46
2018-08-30T17:26:04.664Z,70.92
2018-08-30T17:28:34.149Z,71.50
2018-08-30T17:31:03.760Z,72.30
2018-08-30T17:33:33.241Z,72.11
2018-08-30T17:36:02.715Z,71.79
2018-08-30T17:38:32.167Z,72.06
2018-08-30T17:41:01.636Z,72.07
2018-08-30T17:43:31.125Z,72.30
2018-08-30T17:46:00.559Z,72.10
2018-08-30T17:48:30.095Z,72.34
2018-08-30T17:50:59.652Z,73.67
2018-08-30T17:53:29.172Z,73.78
2018-08-30T17:55:58.752Z,75.01
2018-08-30T17:58:28.137Z,76.08
2018-08-30T18:00:57.627Z,76.52
2018-08-30T18:03:27.133Z,77.01
2018-08-30T18:05:56.533Z,77.37
2018-08-30T18:08:25.972Z,77.03
2018-08-30T18:10:55.625Z,77.38
2018-08-30T18:13:25.121Z,76.79
2018-08-30T18:15:54.514Z,76.86
2018-08-30T18:18:24.043Z,77.39
2018-08-30T18:20:53.411Z,76.82
2018-08-30T18:23:23.073Z,77.67
2018-08-30T18:25:52.513Z,77.95
2018-08-30T18:28:21.950Z,78.98
2018-08-30T18:30:51.865Z,79.29
2018-08-30T18:33:21.822Z,79.12
2018-08-30T18:35:51.436Z,79.36
2018-08-30T18:38:21.075Z,78.98
2018-08-30T18:40:50.622Z,79.64
2018-08-30T18:43:20.068Z,79.58
2018-08-30T18:45:49.941Z,80.45
2018-08-30T18:48:19.548Z,80.54
2018-08-30T18:50:48.975Z,79.36
2018-08-30T18:53:18.400Z,79.44
2018-08-30T18:55:47.971Z,79.58
2018-08-30T18:58:17.481Z,79.94
2018-08-30T19:00:46.884Z,80.60
2018-08-30T19:03:16.419Z,80.37
2018-08-30T19:05:45.772Z,80.23
2018-08-30T19:08:15.633Z,81.09
2018-08-30T19:10:45.000Z,81.91
2018-08-30T19:13:14.472Z,81.00
2018-08-30T19:15:49.012Z,81.23
2018-08-30T19:18:23.730Z,80.81
2018-08-30T19:20:53.187Z,81.04
2018-08-30T19:23:22.610Z,81.14
2018-08-30T19:25:52.071Z,81.96
2018-08-30T19:28:21.468Z,81.87
2018-08-30T19:30:52.355Z,82.66
2018-08-30T19:33:23.736Z,82.30
2018-08-30T19:35:58.709Z,82.21
2018-08-30T19:38:28.666Z,82.87
2018-08-30T19:41:04.466Z,83.25
2018-08-30T19:43:34.405Z,82.81
2018-08-30T19:46:05.159Z,83.52
2018-08-30T19:48:35.867Z,83.26
2018-08-30T19:51:05.612Z,83.15
2018-08-30T19:53:35.067Z,83.73
2018-08-30T19:56:04.598Z,85.09
2018-08-30T19:58:34.035Z,84.17
2018-08-30T20:01:03.453Z,84.52
2018-08-30T20:03:32.868Z,84.42
2018-08-30T20:06:02.286Z,85.42
2018-08-30T20:08:31.762Z,84.74
2018-08-30T20:11:01.348Z,85.69
2018-08-30T20:13:30.933Z,85.51
2018-08-30T20:16:00.375Z,85.34
2018-08-30T20:18:29.841Z,85.76
2018-08-30T20:20:59.279Z,85.73
2018-08-30T20:23:28.865Z,85.55
2018-08-30T20:25:58.335Z,86.04
2018-08-30T20:28:29.941Z,85.72
2018-08-30T20:30:59.366Z,86.29
2018-08-30T20:33:28.915Z,86.45
2018-08-30T20:35:58.387Z,86.08
2018-08-30T20:38:27.832Z,86.99
2018-08-30T20:40:57.400Z,86.79
2018-08-30T20:43:26.794Z,87.05
2018-08-30T20:45:56.283Z,86.94
2018-08-30T20:48:25.769Z,87.27
2018-08-30T20:50:55.200Z,87.42
2018-08-30T20:53:24.782Z,86.96
2018-08-30T20:55:54.246Z,87.13
2018-08-30T20:58:23.660Z,87.99
2018-08-30T21:00:53.593Z,87.06
2018-08-30T21:03:23.548Z,87.17
2018-08-30T21:05:52.901Z,87.19
2018-08-30T21:08:22.403Z,87.49
2018-08-30T21:10:51.792Z,87.60
2018-08-30T21:13:21.203Z,87.97
2018-08-30T21:15:50.621Z,88.63
2018-08-30T21:18:20.500Z,88.94
2018-08-30T21:20:49.925Z,88.20
2018-08-30T21:23:19.311Z,88.72
2018-08-30T21:25:48.730Z,89.03
2018-08-30T21:28:18.190Z,88.50
2018-08-30T21:30:47.701Z,88.67
2018-08-30T21:33:17.121Z,87.91
2018-08-30T21:35:46.643Z,88.18
2018-08-30T21:38:16.244Z,89.32
2018-08-30T21:40:45.700Z,89.65
2018-08-30T21:43:15.107Z,89.21
2018-08-30T21:45:44.564Z,89.37
2018-08-30T21:48:13.966Z,89.41
2018-08-30T21:50:43.885Z,89.41
2018-08-30T21:53:13.278Z,90.09
2018-08-30T21:55:42.667Z,90.17
2018-08-30T21:58:12.111Z,89.77
2018-08-30T22:00:41.772Z,89.95
2018-08-30T22:03:11.253Z,90.04
2018-08-30T22:05:40.695Z,90.65
2018-08-30T22:08:10.111Z,90.55
2018-08-30T22:10:39.548Z,89.62
2018-08-30T22:13:08.901Z,89.55
2018-08-30T22:15:38.450Z,89.10
2018-08-30T22:18:08.363Z,89.76
2018-08-30T22:20:37.752Z,90.21
2018-08-30T22:23:07.298Z,90.26
2018-08-30T22:25:36.711Z,91.11
2018-08-30T22:28:06.526Z,90.55
2018-08-30T22:30:35.876Z,90.57
2018-08-30T22:33:05.413Z,89.58
2018-08-30T22:35:35.324Z,89.70
2018-08-30T22:38:05.287Z,89.49
2018-08-30T22:40:34.692Z,89.93
2018-08-30T22:43:04.115Z,89.71
2018-08-30T22:45:33.521Z,89.68
2018-08-30T22:48:02.907Z,89.45
2018-08-30T22:50:32.354Z,89.61
2018-08-30T22:53:02.297Z,90.46
2018-08-30T22:55:31.786Z,91.10
2018-08-30T22:58:01.153Z,91.16
2018-08-30T23:00:30.616Z,90.84
2018-08-30T23:02:59.979Z,91.59
2018-08-30T23:05:29.389Z,91.55
2018-08-30T23:07:59.291Z,91.11
2018-08-30T23:10:29.284Z,90.56
2018-08-30T23:12:58.887Z,90.96
2018-08-30T23:15:28.423Z,90.83
2018-08-30T23:17:57.839Z,90.83
2018-08-30T23:20:27.371Z,90.56
2018-08-30T23:22:56.848Z,90.18
2018-08-30T23:25:30.459Z,89.91
2018-08-30T23:27:59.993Z,89.88
2018-08-30T23:30:29.409Z,89.76
2018-08-30T23:32:58.811Z,89.65
2018-08-30T23:35:28.723Z,89.84
2018-08-30T23:37:58.172Z,89.92
2018-08-30T23:40:27.600Z,90.21
2018-08-30T23:42:57.047Z,90.64
2018-08-30T23:45:26.472Z,90.30
2018-08-30T23:47:55.839Z,90.91
2018-08-30T23:50:25.323Z,90.85
2018-08-30T23:52:54.910Z,90.98
2018-08-30T23:55:24.390Z,91.01
2018-08-30T23:58:10.593Z,90.32
